createdAt,value
2022-09-07T00:03:17.927Z,94905
2022-09-07T00:06:43.150Z,94907
2022-09-07T00:10:08.422Z,94906
2022-09-07T00:13:33.693Z,94903
2022-09-07T00:16:58.952Z,94903
2022-09-07T00:20:24.207Z,94916
2022-09-07T00:23:49.471Z,94917
2022-09-07T00:27:14.718Z,94918
2022-09-07T00:30:39.999Z,94921
2022-09-07T00:34:05.234Z,94917
2022-09-07T00:37:30.508Z,94913
2022-09-07T00:40:55.743Z,94913
2022-09-07T00:44:20.984Z,94908
2022-09-07T00:47:46.248Z,94908
2022-09-07T00:51:11.526Z,94907
2022-09-07T00:54:36.788Z,94896
2022-09-07T00:58:02.042Z,94885
2022-09-07T01:01:27.467Z,94878
2022-09-07T01:04:52.567Z,94894
2022-09-07T01:08:17.843Z,94903
2022-09-07T01:11:43.145Z,94907
2022-09-07T01:15:08.420Z,94913
2022-09-07T01:18:33.714Z,94906
2022-09-07T01:21:58.989Z,94908
2022-09-07T01:25:24.239Z,94902
2022-09-07T01:28:49.495Z,94909
2022-09-07T01:32:14.779Z,94908
2022-09-07T01:35:40.069Z,94905
2022-09-07T01:39:05.350Z,94907
2022-09-07T01:42:30.608Z,94910
2022-09-07T01:45:55.844Z,94906
2022-09-07T01:49:21.120Z,94917
2022-09-07T01:52:46.365Z,94903
2022-09-07T01:56:11.623Z,94908
2022-09-07T01:59:36.880Z,94906
2022-09-07T02:03:02.161Z,94903
2022-09-07T02:06:27.386Z,94903
2022-09-07T02:09:52.629Z,94900
2022-09-07T02:13:17.872Z,94898
2022-09-07T02:16:43.144Z,94900
2022-09-07T02:20:08.395Z,94897
2022-09-07T02:23:33.645Z,94894
2022-09-07T02:26:58.937Z,94894
2022-09-07T02:30:24.193Z,94892
2022-09-07T02:33:49.475Z,94886
2022-09-07T02:37:14.704Z,94895
2022-09-07T02:40:39.968Z,94896
2022-09-07T02:44:05.276Z,94884
2022-09-07T02:47:30.566Z,94882
2022-09-07T02:50:55.812Z,94872
2022-09-07T02:54:21.065Z,94867
2022-09-07T02:57:46.352Z,94861
2022-09-07T03:01:11.657Z,94862
2022-09-07T03:04:36.896Z,94865
2022-09-07T03:08:02.162Z,94862
2022-09-07T03:11:27.454Z,94867
2022-09-07T03:14:52.731Z,94869
2022-09-07T03:18:18.040Z,94869
2022-09-07T03:21:43.288Z,94874
2022-09-07T03:25:08.559Z,94872
2022-09-07T03:28:33.815Z,94868
2022-09-07T03:31:59.081Z,94868
2022-09-07T03:35:24.327Z,94864
2022-09-07T03:38:49.645Z,94865
2022-09-07T03:42:14.941Z,94860
2022-09-07T03:45:40.249Z,94864
2022-09-07T03:49:05.481Z,94864
2022-09-07T03:52:30.744Z,94858
2022-09-07T03:55:56.014Z,94860
2022-09-07T03:59:21.279Z,94861
2022-09-07T04:02:46.642Z,94869
2022-09-07T04:06:11.810Z,94857
2022-09-07T04:09:37.105Z,94863
2022-09-07T04:13:02.353Z,94862
2022-09-07T04:16:27.648Z,94856
2022-09-07T04:19:52.869Z,94851
2022-09-07T04:23:18.169Z,94848
2022-09-07T04:26:43.439Z,94850
2022-09-07T04:30:08.688Z,94849
2022-09-07T04:33:34.002Z,94845
2022-09-07T04:36:59.297Z,94845
2022-09-07T04:40:24.509Z,94844
2022-09-07T04:43:49.795Z,94840
2022-09-07T04:47:15.034Z,94840
2022-09-07T04:50:40.257Z,94840
2022-09-07T04:54:05.498Z,94844
2022-09-07T04:57:30.709Z,94849
2022-09-07T05:00:56.010Z,94851
2022-09-07T05:04:21.254Z,94853
2022-09-07T05:07:46.608Z,94860
2022-09-07T05:11:11.890Z,94865
2022-09-07T05:14:37.135Z,94861
2022-09-07T05:18:02.364Z,94868
2022-09-07T05:21:27.623Z,94858
2022-09-07T05:24:52.850Z,94853
2022-09-07T05:28:26.232Z,94858
2022-09-07T05:31:43.350Z,94857
2022-09-07T05:35:08.595Z,94855
2022-09-07T05:38:33.864Z,94852
2022-09-07T05:41:59.106Z,94853
2022-09-07T05:45:24.339Z,94844
2022-09-07T05:48:49.611Z,94846
2022-09-07T05:52:14.838Z,94841
2022-09-07T05:55:40.082Z,94842
2022-09-07T05:59:05.359Z,94838
2022-09-07T06:02:30.693Z,94848
2022-09-07T06:05:55.864Z,94838
2022-09-07T06:09:21.162Z,94836
2022-09-07T06:12:48.442Z,94829
2022-09-07T06:16:11.796Z,94827
2022-09-07T06:19:36.993Z,94827
2022-09-07T06:23:02.262Z,94830
2022-09-07T06:26:27.519Z,94839
2022-09-07T06:29:52.815Z,94838
2022-09-07T06:33:19.669Z,94846
2022-09-07T06:36:43.332Z,94849
2022-09-07T06:40:08.659Z,94844
2022-09-07T06:43:33.883Z,94844
2022-09-07T06:50:24.481Z,94847
2022-09-07T06:53:50.271Z,94835
2022-09-07T06:57:14.961Z,94834
2022-09-07T07:00:40.315Z,94833
2022-09-07T07:04:05.539Z,94825
2022-09-07T07:07:30.791Z,94833
2022-09-07T07:10:56.057Z,94832
2022-09-07T07:14:19.277Z,94831
2022-09-07T07:17:46.906Z,94832
2022-09-07T07:21:09.827Z,94822
2022-09-07T07:24:35.151Z,94829
2022-09-07T07:31:25.713Z,94829
2022-09-07T07:34:51.010Z,94821
2022-09-07T07:41:57.735Z,94825
2022-09-07T07:48:32.046Z,94834
2022-09-07T07:58:47.869Z,94841
2022-09-07T08:02:13.328Z,94848
2022-09-07T08:05:38.389Z,94846
2022-09-07T08:09:03.681Z,94847
2022-09-07T08:12:29.809Z,94850
2022-09-07T08:15:54.230Z,94853
2022-09-07T08:19:19.474Z,94855
2022-09-07T08:22:44.771Z,94858
2022-09-07T08:26:10.074Z,94865
2022-09-07T08:29:35.615Z,94862
2022-09-07T08:33:00.540Z,94861
2022-09-07T08:36:25.891Z,94868
2022-09-07T08:39:51.236Z,94864
2022-09-07T08:43:16.422Z,94861
2022-09-07T08:46:41.712Z,94857
2022-09-07T08:50:06.989Z,94863
2022-09-07T08:53:32.353Z,94863
2022-09-07T09:00:22.789Z,94873
2022-09-07T09:07:13.278Z,94871
2022-09-07T09:10:38.542Z,94859
2022-09-07T09:14:03.792Z,94857
2022-09-07T09:17:29.065Z,94853
2022-09-07T09:20:54.310Z,94857
2022-09-07T09:24:19.591Z,94856
2022-09-07T09:27:44.845Z,94867
2022-09-07T09:31:10.167Z,94868
2022-09-07T09:34:35.386Z,94868
2022-09-07T09:38:00.619Z,94861
2022-09-07T09:41:25.918Z,94862
2022-09-07T09:44:51.214Z,94869
2022-09-07T09:48:16.510Z,94866
2022-09-07T10:05:22.494Z,94867
2022-09-07T10:08:47.765Z,94866
2022-09-07T10:12:12.986Z,94860
2022-09-07T10:15:40.802Z,94863
2022-09-07T10:19:03.438Z,94868
2022-09-07T10:22:28.632Z,94870
2022-09-07T10:25:53.884Z,94864
2022-09-07T10:29:19.109Z,94862
2022-09-07T10:32:44.333Z,94860
2022-09-07T10:36:09.568Z,94871
2022-09-07T10:39:34.882Z,94871
2022-09-07T10:53:39.302Z,94862
2022-09-07T10:56:40.813Z,94862
2022-09-07T11:00:08.078Z,94874
2022-09-07T11:03:31.515Z,94869
2022-09-07T11:06:56.669Z,94868
2022-09-07T11:10:21.868Z,94864
2022-09-07T11:14:09.214Z,94863
2022-09-07T11:17:12.341Z,94857
2022-09-07T11:20:37.507Z,94849
2022-09-07T11:24:02.679Z,94853
2022-09-07T11:27:27.855Z,94854
2022-09-07T11:30:55.554Z,94842
2022-09-07T11:34:25.623Z,94837
2022-09-07T11:37:43.505Z,94844
2022-09-07T11:41:08.751Z,94836
2022-09-07T11:44:33.978Z,94838
2022-09-07T11:47:59.234Z,94831
2022-09-07T11:51:24.464Z,94829
2022-09-07T11:54:49.663Z,94837
2022-09-07T11:58:14.925Z,94828
2022-09-07T12:01:40.125Z,94823
2022-09-07T12:05:05.396Z,94812
2022-09-07T12:08:30.644Z,94812
2022-09-07T12:11:55.842Z,94815
2022-09-07T12:15:21.036Z,94810
2022-09-07T12:18:46.310Z,94810
2022-09-07T12:22:11.517Z,94803
2022-09-07T12:25:36.831Z,94805
2022-09-07T12:29:02.128Z,94806
2022-09-07T12:35:52.685Z,94789
2022-09-07T12:39:17.938Z,94785
2022-09-07T12:42:43.203Z,94792
2022-09-07T12:46:08.494Z,94798
2022-09-07T12:49:33.637Z,94785
2022-09-07T12:52:58.868Z,94786
2022-09-07T12:56:24.102Z,94780
2022-09-07T12:59:49.386Z,94774
2022-09-07T13:10:05.069Z,94768
2022-09-07T13:20:20.928Z,94756
2022-09-07T13:23:46.165Z,94755
2022-09-07T13:27:11.396Z,94751
2022-09-07T13:30:36.736Z,94758
2022-09-07T13:34:01.907Z,94750
2022-09-07T13:37:27.096Z,94748
2022-09-07T13:40:52.341Z,94743
2022-09-07T13:44:17.558Z,94739
2022-09-07T13:47:42.811Z,94738
2022-09-07T13:51:08.030Z,94739
2022-09-07T13:54:33.253Z,94748
2022-09-07T13:57:58.445Z,94746
2022-09-07T14:01:23.717Z,94743
2022-09-07T14:04:48.957Z,94738
2022-09-07T14:08:14.148Z,94729
2022-09-07T14:11:39.319Z,94723
2022-09-07T14:15:08.385Z,94721
2022-09-07T14:18:29.767Z,94727
2022-09-07T14:21:55.010Z,94723
2022-09-07T14:25:20.202Z,94726
2022-09-07T14:28:45.351Z,94723
2022-09-07T15:07:18.505Z,94716
2022-09-07T15:11:32.731Z,94707
2022-09-07T15:14:08.949Z,94701
2022-09-07T15:17:49.547Z,94709
2022-09-07T15:20:59.332Z,94708
2022-09-07T15:24:24.940Z,94696
2022-09-07T15:27:49.885Z,94691
2022-09-07T15:34:40.741Z,94691
2022-09-07T15:38:59.263Z,94690
2022-09-07T15:41:31.231Z,94692
2022-09-07T15:44:56.461Z,94688
2022-09-07T15:48:21.727Z,94681
2022-09-07T15:55:12.199Z,94677
2022-09-07T15:58:37.467Z,94666
2022-09-07T16:02:03.131Z,94660
2022-09-07T16:05:30.866Z,94663
2022-09-07T16:08:53.123Z,94656
2022-09-07T16:15:45.063Z,94655
2022-09-07T16:19:11.931Z,94663
2022-09-07T16:26:02.359Z,94666
2022-09-07T16:29:27.554Z,94663
2022-09-07T16:32:52.942Z,94664
2022-09-07T16:36:18.041Z,94655
2022-09-07T16:39:43.319Z,94660
2022-09-07T16:43:08.853Z,94659
2022-09-07T16:46:33.748Z,94661
2022-09-07T16:49:59.092Z,94659
2022-09-07T16:53:24.280Z,94662
2022-09-07T16:56:49.524Z,94665
2022-09-07T17:00:14.729Z,94668
2022-09-07T17:03:40.021Z,94671
2022-09-07T17:07:05.266Z,94676
2022-09-07T17:10:30.483Z,94668
2022-09-07T17:13:55.738Z,94671
2022-09-07T17:17:20.990Z,94671
2022-09-07T17:20:46.224Z,94666
2022-09-07T17:24:11.505Z,94670
2022-09-07T17:27:36.739Z,94666
2022-09-07T17:31:01.943Z,94670
2022-09-07T17:34:27.197Z,94669
2022-09-07T17:37:52.550Z,94671
2022-09-07T17:41:17.691Z,94669
2022-09-07T17:44:42.914Z,94668
2022-09-07T17:48:08.151Z,94653
2022-09-07T17:51:33.361Z,94662
2022-09-07T17:54:58.591Z,94667
2022-09-07T17:58:23.826Z,94670
2022-09-07T18:01:49.088Z,94677
2022-09-07T18:05:14.297Z,94673
2022-09-07T18:08:39.556Z,94675
2022-09-07T18:12:04.806Z,94677
2022-09-07T18:15:30.071Z,94675
2022-09-07T18:18:55.290Z,94680
2022-09-07T18:22:20.534Z,94680
2022-09-07T18:25:45.737Z,94691
2022-09-07T18:29:26.156Z,94693
2022-09-07T18:32:36.236Z,94695
2022-09-07T18:36:01.449Z,94696
2022-09-07T18:39:26.847Z,94700
2022-09-07T18:42:52.562Z,94701
2022-09-07T18:46:17.286Z,94700
2022-09-07T18:49:43.087Z,94705
2022-09-07T18:53:16.384Z,94702
2022-09-07T18:56:32.975Z,94711
2022-09-07T18:59:58.219Z,94718
2022-09-07T19:03:23.460Z,94719
2022-09-07T19:06:48.797Z,94724
2022-09-07T19:10:13.936Z,94719
2022-09-07T19:13:39.187Z,94715
2022-09-07T19:17:04.430Z,94720
2022-09-07T19:20:29.701Z,94722
2022-09-07T19:23:54.986Z,94721
2022-09-07T19:27:20.224Z,94728
2022-09-07T19:30:45.509Z,94726
2022-09-07T19:34:10.747Z,94718
2022-09-07T19:37:36.012Z,94717
2022-09-07T19:41:01.300Z,94717
2022-09-07T19:44:26.533Z,94708
2022-09-07T19:47:51.780Z,94703
2022-09-07T19:51:17.024Z,94699
2022-09-07T19:54:42.297Z,94691
2022-09-07T19:58:08.407Z,94678
2022-09-07T20:01:33.682Z,94679
2022-09-07T20:04:58.957Z,94687
2022-09-07T20:08:24.208Z,94685
2022-09-07T20:11:49.487Z,94684
2022-09-07T20:15:14.758Z,94684
2022-09-07T20:18:39.946Z,94683
2022-09-07T20:22:05.194Z,94680
2022-09-07T20:25:30.462Z,94676
2022-09-07T20:29:10.920Z,94674
2022-09-07T20:32:20.959Z,94679
2022-09-07T20:35:46.167Z,94669
2022-09-07T20:39:11.390Z,94662
2022-09-07T20:42:36.619Z,94658
2022-09-07T20:46:01.872Z,94663
2022-09-07T20:49:27.152Z,94660
2022-09-07T20:52:52.379Z,94656
2022-09-07T20:56:17.600Z,94656
2022-09-07T20:59:42.855Z,94647
2022-09-07T21:03:08.076Z,94640
2022-09-07T21:06:33.356Z,94640
2022-09-07T21:09:58.561Z,94652
2022-09-07T21:13:23.813Z,94651
2022-09-07T21:16:49.063Z,94650
2022-09-07T21:20:14.320Z,94653
2022-09-07T21:23:39.609Z,94648
2022-09-07T21:27:04.816Z,94643
2022-09-07T21:30:30.069Z,94647
2022-09-07T21:33:55.340Z,94644
2022-09-07T21:37:20.601Z,94646
2022-09-07T21:40:45.883Z,94641
2022-09-07T21:44:11.099Z,94634
2022-09-07T21:47:36.352Z,94636
2022-09-07T21:51:01.617Z,94632
2022-09-07T21:54:26.852Z,94626
2022-09-07T21:57:52.111Z,94626
2022-09-07T22:01:17.465Z,94625
2022-09-07T22:04:42.619Z,94624
2022-09-07T22:08:07.904Z,94616
2022-09-07T22:11:33.203Z,94604
2022-09-07T22:14:58.503Z,94608
2022-09-07T22:18:23.762Z,94612
2022-09-07T22:21:49.066Z,94616
2022-09-07T22:25:14.364Z,94616
2022-09-07T22:28:39.679Z,94613
2022-09-07T22:32:04.964Z,94609
2022-09-07T22:35:30.202Z,94604
2022-09-07T22:38:55.555Z,94601
2022-09-07T22:42:20.776Z,94607
2022-09-07T22:45:46.081Z,94607
2022-09-07T22:49:11.391Z,94599
2022-09-07T22:52:36.665Z,94598
2022-09-07T22:56:01.965Z,94603
2022-09-07T22:59:27.243Z,94611
2022-09-07T23:02:52.552Z,94607
2022-09-07T23:06:17.851Z,94605
2022-09-07T23:09:43.127Z,94603
2022-09-07T23:13:08.417Z,94605
2022-09-07T23:16:33.743Z,94596
2022-09-07T23:19:58.996Z,94589
2022-09-07T23:23:24.317Z,94588
2022-09-07T23:26:49.571Z,94572
2022-09-07T23:30:14.854Z,94566
2022-09-07T23:33:40.138Z,94563
2022-09-07T23:37:05.418Z,94556
2022-09-07T23:40:30.745Z,94550
2022-09-07T23:43:55.993Z,94551
2022-09-07T23:47:21.297Z,94553
2022-09-07T23:50:46.591Z,94544
2022-09-07T23:54:11.880Z,94544
2022-09-07T23:57:37.198Z,94533
